Time;durP1;ratioP1;P1;durP2;ratioP2;P2;SDS_P1;SDS_P2;PMS_P1;PMS_P2;Temp;Humidity;BMP_temperature;BMP_pressure;BME280_temperature;BME280_humidity;BME280_pressure;Samples;Min_cycle;Max_cycle;Signal;HPM_P1;HPM_P2
2023/06/06 00:02:19;;;;;;;5.38;3.47;;;15.60;23.80;;;;;;10069008;29;20231;-81
2023/06/06 00:07:43;;;;;;;4.20;3.38;;;15.50;74.30;;;;;;10058337;29;20213;-76
2023/06/06 00:13:04;;;;;;;5.65;3.28;;;15.50;1.00;;;;;;10083361;29;20504;-75
2023/06/06 00:18:27;;;;;;;8.32;4.15;;;15.40;50.90;;;;;;10078049;29;20248;-75
2023/06/06 00:23:49;;;;;;;9.50;3.63;;;15.30;99.90;;;;;;10056268;29;20248;-76
2023/06/06 00:29:10;;;;;;;5.80;3.40;;;15.30;99.90;;;;;;10033192;29;20209;-75
2023/06/06 00:34:31;;;;;;;6.35;3.63;;;15.20;99.90;;;;;;10029431;29;20259;-77
2023/06/06 00:39:53;;;;;;;6.90;2.95;;;15.30;99.90;;;;;;10043355;29;20235;-76
2023/06/06 00:45:14;;;;;;;4.18;2.78;;;15.20;99.90;;;;;;10047404;29;20253;-76
2023/06/06 00:50:36;;;;;;;5.05;2.95;;;15.20;99.90;;;;;;10055918;29;20202;-76
2023/06/06 00:55:58;;;;;;;5.20;3.20;;;15.00;99.90;;;;;;10058877;29;20240;-76
2023/06/06 01:01:19;;;;;;;9.40;3.80;;;15.10;99.90;;;;;;10045671;29;20256;-76
2023/06/06 01:06:40;;;;;;;6.78;4.00;;;15.00;99.90;;;;;;10078011;29;20210;-78
2023/06/06 01:12:32;;;;;;;6.55;4.20;;;15.00;99.90;;;;;;10081304;29;20224;-75
2023/06/06 01:17:53;;;;;;;7.25;4.00;;;14.90;99.90;;;;;;10066156;29;20237;-76
2023/06/06 01:23:15;;;;;;;7.55;4.32;;;14.90;99.90;;;;;;10075182;29;20210;-83
2023/06/06 01:28:37;;;;;;;8.05;5.50;;;14.70;99.90;;;;;;10050986;29;20237;-80
2023/06/06 01:34:06;;;;;;;6.13;4.38;;;14.70;99.90;;;;;;10053211;29;20212;-83
2023/06/06 01:39:30;;;;;;;6.22;3.92;;;14.70;99.90;;;;;;10079875;29;20301;-82
2023/06/06 01:44:53;;;;;;;6.38;3.20;;;14.60;99.90;;;;;;10061828;29;20436;-81
2023/06/06 02:03:48;;;;;;;6.22;4.07;;;14.50;99.90;;;;;;9947983;29;20239;-82
2023/06/06 02:09:10;;;;;;;8.65;4.45;;;14.50;99.90;;;;;;10061709;29;20216;-75
2023/06/06 02:14:32;;;;;;;5.97;3.60;;;14.50;1.00;;;;;;10050110;29;20221;-76
2023/06/06 02:19:54;;;;;;;7.13;4.30;;;14.30;99.90;;;;;;10040515;29;20282;-76
2023/06/06 02:25:16;;;;;;;10.60;4.47;;;14.30;1.00;;;;;;10042969;29;20213;-82
2023/06/06 02:30:37;;;;;;;7.10;4.03;;;14.20;1.00;;;;;;10040931;29;20396;-79
2023/06/06 02:36:00;;;;;;;8.13;4.40;;;14.20;1.00;;;;;;10060665;29;20282;-81
2023/06/06 03:18:57;;;;;;;5.07;3.67;;;14.30;1.00;;;;;;10045202;29;20249;-84
2023/06/06 03:24:19;;;;;;;6.70;3.55;;;14.40;1.00;;;;;;10047530;29;20491;-81
2023/06/06 03:29:41;;;;;;;5.43;3.47;;;14.50;1.00;;;;;;10046602;29;20225;-80
2023/06/06 03:35:03;;;;;;;4.25;2.95;;;14.60;99.90;;;;;;10046197;29;20209;-76
2023/06/06 03:40:26;;;;;;;4.70;2.80;;;14.70;99.90;;;;;;10031593;29;20289;-76
2023/06/06 03:45:47;;;;;;;3.78;2.63;;;14.80;99.90;;;;;;10044823;29;20207;-85
2023/06/06 03:51:08;;;;;;;5.53;3.08;;;14.90;99.90;;;;;;10061073;29;20246;-85
2023/06/06 03:56:30;;;;;;;4.20;2.72;;;15.00;99.90;;;;;;10031295;29;20205;-83
2023/06/06 04:01:52;;;;;;;4.53;3.15;;;15.00;99.90;;;;;;10025801;29;20224;-77
2023/06/06 04:07:17;;;;;;;4.72;2.90;;;15.20;86.70;;;;;;10065355;29;20274;-76
2023/06/06 04:12:39;;;;;;;6.55;3.60;;;15.30;1.00;;;;;;10047252;29;20472;-77
2023/06/06 04:18:01;;;;;;;5.80;3.90;;;15.40;1.00;;;;;;10042361;29;20216;-76
2023/06/06 04:23:23;;;;;;;7.80;3.88;;;15.40;1.00;;;;;;10082611;29;20460;-78
2023/06/06 05:04:54;;;;;;;7.75;2.65;;;16.10;1.00;;;;;;10047296;29;20219;-77
2023/06/06 05:10:15;;;;;;;14.20;3.70;;;16.20;1.00;;;;;;10028888;29;20220;-77
2023/06/06 05:15:36;;;;;;;7.20;3.53;;;16.40;1.00;;;;;;10070556;29;20213;-76
2023/06/06 05:21:03;;;;;;;3.55;2.22;;;16.50;1.00;;;;;;10042450;29;20542;-85
2023/06/06 05:26:25;;;;;;;4.97;2.78;;;16.60;1.00;;;;;;10078435;29;20592;-84
2023/06/06 05:31:47;;;;;;;5.82;2.97;;;16.70;1.00;;;;;;10076648;29;20224;-79
2023/06/06 05:37:08;;;;;;;3.85;2.40;;;16.80;1.00;;;;;;10074396;29;20248;-84
2023/06/06 05:42:29;;;;;;;3.78;2.72;;;17.00;1.00;;;;;;10073831;29;20226;-78
2023/06/06 05:47:51;;;;;;;4.72;2.60;;;17.20;1.00;;;;;;10044587;29;20388;-81
2023/06/06 05:53:12;;;;;;;3.63;2.75;;;17.40;1.00;;;;;;10042416;29;20252;-78
2023/06/06 05:58:33;;;;;;;6.30;2.65;;;17.70;1.00;;;;;;10043444;29;20284;-83
2023/06/06 06:03:54;;;;;;;6.30;2.70;;;18.00;1.00;;;;;;10063868;29;20194;-76
2023/06/06 06:09:16;;;;;;;5.38;2.75;;;18.20;99.90;;;;;;10078778;29;20500;-77
2023/06/06 06:14:37;;;;;;;3.33;2.45;;;18.40;99.90;;;;;;10078834;29;20493;-75
2023/06/06 06:20:00;;;;;;;3.35;2.53;;;18.70;99.90;;;;;;10040396;29;20466;-83
2023/06/06 06:25:22;;;;;;;4.70;3.33;;;19.00;99.90;;;;;;10042557;29;20362;-82
2023/06/06 06:30:43;;;;;;;6.63;2.90;;;19.40;99.90;;;;;;10068141;29;20202;-81
2023/06/06 06:36:30;;;;;;;5.00;2.80;;;19.70;99.90;;;;;;10053597;29;20273;-82
2023/06/06 06:41:52;;;;;;;6.43;3.08;;;20.30;99.90;;;;;;10049274;29;20264;-81
2023/06/06 06:47:14;;;;;;;4.65;2.50;;;20.80;99.90;;;;;;10050588;29;20290;-81
2023/06/06 06:52:35;;;;;;;7.90;2.20;;;21.50;99.90;;;;;;10047269;29;20199;-86
2023/06/06 06:57:58;;;;;;;4.43;2.22;;;22.30;99.90;;;;;;10071240;29;20219;-81
2023/06/06 07:03:20;;;;;;;4.15;2.15;;;22.80;99.90;;;;;;10074996;29;20198;-82
2023/06/06 07:08:42;;;;;;;9.32;2.45;;;23.40;99.90;;;;;;10065609;29;20222;-78
2023/06/06 07:14:04;;;;;;;5.60;2.42;;;24.00;99.90;;;;;;10059570;29;20239;-79
2023/06/06 07:19:26;;;;;;;3.05;1.90;;;24.40;99.90;;;;;;10070493;29;20347;-78
2023/06/06 07:24:47;;;;;;;6.38;2.47;;;24.60;99.90;;;;;;10078374;29;20194;-78
2023/06/06 07:30:13;;;;;;;5.38;3.10;;;25.10;99.90;;;;;;10085668;29;20229;-79
2023/06/06 07:35:36;;;;;;;5.75;3.40;;;25.60;99.90;;;;;;10104363;29;20219;-78
2023/06/06 07:40:57;;;;;;;3.85;2.22;;;25.80;99.90;;;;;;10071899;29;20229;-80
2023/06/06 07:46:18;;;;;;;4.43;2.28;;;26.20;99.90;;;;;;10043657;29;20491;-77
2023/06/06 07:51:39;;;;;;;4.60;2.35;;;26.70;99.90;;;;;;10026501;29;20252;-78
2023/06/06 07:57:01;;;;;;;13.02;2.28;;;27.20;99.90;;;;;;10049263;29;20265;-82
2023/06/06 08:02:23;;;;;;;6.10;2.60;;;27.60;99.90;;;;;;10063165;29;20309;-82
2023/06/06 08:07:44;;;;;;;10.05;2.50;;;27.90;99.90;;;;;;10088007;29;20222;-78
2023/06/06 08:13:06;;;;;;;2.72;1.83;;;28.10;99.90;;;;;;10049771;29;20433;-80
2023/06/06 08:18:29;;;;;;;3.53;1.88;;;28.60;99.90;;;;;;10040571;29;20290;-79
2023/06/06 08:23:50;;;;;;;14.88;3.67;;;28.90;99.90;;;;;;10017143;29;20211;-79
2023/06/06 08:29:14;;;;;;;7.38;3.92;;;29.20;99.90;;;;;;10057361;29;20447;-84
2023/06/06 08:34:35;;;;;;;3.33;2.38;;;29.50;1.00;;;;;;10055585;29;20489;-79
2023/06/06 08:39:57;;;;;;;8.65;2.75;;;;;;;;;;10054495;29;20260;-79
2023/06/06 08:45:21;;;;;;;5.85;2.05;;;28.70;99.90;;;;;;10064903;29;20205;-81
2023/06/06 08:50:42;;;;;;;4.38;1.73;;;27.70;99.90;;;;;;10036211;29;20216;-79
2023/06/06 08:56:07;;;;;;;7.10;2.42;;;27.00;99.90;;;;;;10053730;29;20215;-82
2023/06/06 09:01:29;;;;;;;7.38;2.00;;;26.40;99.90;;;;;;10076921;29;20257;-78
2023/06/06 09:06:56;;;;;;;2.90;2.67;;;26.60;99.90;;;;;;10078350;29;20404;-83
2023/06/06 09:12:17;;;;;;;3.00;2.03;;;26.40;99.90;;;;;;10054059;29;20211;-79
2023/06/06 09:17:41;;;;;;;3.75;1.65;;;27.70;99.90;;;;;;10041520;29;20554;-83
2023/06/06 09:23:03;;;;;;;2.63;1.70;;;28.10;99.90;;;;;;10051405;29;20268;-78
2023/06/06 09:28:40;;;;;;;3.42;2.20;;;27.60;99.90;;;;;;10073509;29;20254;-82
2023/06/06 09:34:02;;;;;;;5.65;2.00;;;27.70;99.90;;;;;;10072007;29;20574;-84
2023/06/06 09:39:23;;;;;;;5.43;3.65;;;28.20;99.90;;;;;;10043686;29;20231;-82
2023/06/06 09:44:45;;;;;;;4.60;2.10;;;28.70;99.90;;;;;;10060626;29;20210;-84
2023/06/06 09:50:06;;;;;;;3.35;2.08;;;28.80;99.90;;;;;;10037092;29;20267;-82
2023/06/06 09:55:28;;;;;;;7.20;2.10;;;28.80;99.90;;;;;;10055292;29;20218;-86
2023/06/06 10:00:50;;;;;;;3.90;2.72;;;29.60;99.90;;;;;;10071479;29;20312;-79
2023/06/06 10:06:12;;;;;;;5.05;2.13;;;30.00;99.90;;;;;;10076307;29;20734;-86
2023/06/06 10:11:35;;;;;;;4.15;2.42;;;29.50;99.90;;;;;;10083674;29;20213;-82
2023/06/06 10:16:57;;;;;;;2.45;2.00;;;30.00;99.90;;;;;;10088464;29;20211;-85
2023/06/06 10:22:18;;;;;;;4.63;3.20;;;30.60;99.90;;;;;;10037406;29;20261;-80
2023/06/06 10:27:48;;;;;;;2.42;1.85;;;29.80;99.90;;;;;;10041046;29;20226;-86
2023/06/06 10:33:32;;;;;;;5.70;2.50;;;30.10;99.90;;;;;;10048318;29;20210;-85
2023/06/06 10:39:19;;;;;;;2.63;2.00;;;30.30;99.90;;;;;;10036922;29;20447;-83
2023/06/06 10:44:44;;;;;;;8.30;5.35;;;30.80;99.90;;;;;;10038205;29;20221;-83
2023/06/06 10:50:10;;;;;;;4.88;2.70;;;30.90;99.90;;;;;;10054269;29;20195;-83
2023/06/06 10:55:32;;;;;;;8.63;2.50;;;31.10;99.90;;;;;;10022018;29;20533;-83
2023/06/06 11:00:59;;;;;;;4.38;2.17;;;31.10;99.90;;;;;;10021727;29;20260;-83
2023/06/06 11:06:20;;;;;;;3.17;2.15;;;30.30;99.90;;;;;;10086712;29;20449;-79
2023/06/06 11:11:41;;;;;;;5.13;2.40;;;29.40;99.90;;;;;;10085801;29;20273;-82
2023/06/06 11:17:03;;;;;;;2.80;2.30;;;28.80;99.90;;;;;;10064866;29;20301;-83
2023/06/06 11:22:25;;;;;;;3.92;1.92;;;28.30;99.90;;;;;;10079681;29;20304;-83
2023/06/06 11:27:47;;;;;;;2.47;2.28;;;28.10;99.90;;;;;;10033298;29;20214;-85
2023/06/06 11:33:11;;;;;;;5.18;2.67;;;27.90;99.90;;;;;;10075220;29;20218;-80
2023/06/06 11:38:33;;;;;;;4.28;2.47;;;27.80;99.90;;;;;;10067831;29;20231;-89
2023/06/06 11:43:55;;;;;;;2.97;1.85;;;28.50;99.90;;;;;;10072975;29;20310;-90
2023/06/06 11:49:17;;;;;;;3.13;2.20;;;29.20;99.90;;;;;;10057316;29;20214;-84
2023/06/06 11:54:49;;;;;;;3.47;2.00;;;29.60;99.90;;;;;;10033386;29;20427;-84
2023/06/06 12:00:23;;;;;;;2.90;1.90;;;30.20;99.90;;;;;;10052373;29;20252;-88
2023/06/06 12:05:44;;;;;;;6.68;2.25;;;30.50;99.90;;;;;;10037813;29;20242;-81
2023/06/06 12:11:26;;;;;;;6.07;2.47;;;30.30;99.90;;;;;;10034708;29;20304;-81
2023/06/06 12:16:48;;;;;;;8.80;2.85;;;30.70;99.90;;;;;;10095115;29;20201;-83
2023/06/06 12:22:10;;;;;;;7.07;2.47;;;31.00;99.90;;;;;;10083711;29;20249;-86
2023/06/06 12:27:36;;;;;;;3.50;2.28;;;30.60;99.90;;;;;;10062263;29;20209;-88
2023/06/06 12:33:03;;;;;;;4.15;2.25;;;29.80;99.90;;;;;;10039969;29;20267;-89
2023/06/06 12:38:25;;;;;;;2.90;1.90;;;29.60;99.90;;;;;;10054472;29;20211;-90
2023/06/06 12:43:46;;;;;;;3.33;2.00;;;30.20;99.90;;;;;;10078496;29;20242;-79
2023/06/06 12:49:10;;;;;;;5.90;2.20;;;30.30;99.90;;;;;;10075910;29;20289;-83
2023/06/06 12:54:34;;;;;;;4.95;2.20;;;30.40;99.90;;;;;;10071294;29;20218;-88
2023/06/06 12:59:55;;;;;;;3.00;1.70;;;30.30;99.90;;;;;;10034174;29;20214;-83
2023/06/06 13:05:17;;;;;;;1.98;1.67;;;30.50;99.90;;;;;;10073422;29;20225;-83
2023/06/06 13:10:38;;;;;;;6.53;2.40;;;30.60;99.90;;;;;;10037683;29;20207;-81
2023/06/06 13:16:00;;;;;;;3.78;2.00;;;30.50;99.90;;;;;;10037631;29;20365;-78
2023/06/06 13:21:21;;;;;;;5.45;4.50;;;30.10;99.90;;;;;;10075274;29;20535;-87
2023/06/06 13:26:43;;;;;;;2.53;2.10;;;30.20;99.90;;;;;;10070490;29;20198;-83
2023/06/06 13:32:05;;;;;;;4.05;2.47;;;30.30;99.90;;;;;;10047794;29;20234;-82
2023/06/06 13:37:26;;;;;;;7.55;2.20;;;30.20;99.90;;;;;;10048929;29;20527;-83
2023/06/06 13:42:48;;;;;;;7.32;2.88;;;30.10;99.90;;;;;;10080400;29;20221;-91
2023/06/06 13:48:09;;;;;;;2.58;2.10;;;29.90;99.90;;;;;;10071980;29;20289;-82
2023/06/06 13:53:30;;;;;;;6.32;2.15;;;29.30;99.90;;;;;;10074962;29;20254;-85
2023/06/06 13:58:53;;;;;;;4.47;2.10;;;29.40;99.90;;;;;;10044128;29;20207;-84
2023/06/06 14:04:14;;;;;;;3.65;2.30;;;29.40;99.90;;;;;;10059490;29;20211;-78
2023/06/06 14:09:36;;;;;;;8.50;2.58;;;29.30;99.90;;;;;;10045527;29;20524;-81
2023/06/06 14:14:57;;;;;;;3.15;2.30;;;29.10;99.90;;;;;;10070498;29;20229;-79
2023/06/06 14:20:21;;;;;;;2.67;2.03;;;29.10;99.90;;;;;;10074563;29;20306;-81
2023/06/06 14:25:47;;;;;;;6.32;4.00;;;29.10;99.90;;;;;;10054509;29;20282;-80
2023/06/06 14:31:08;;;;;;;4.85;3.10;;;28.90;99.90;;;;;;10035916;29;20207;-79
2023/06/06 14:36:30;;;;;;;5.05;2.30;;;28.40;99.90;;;;;;10037293;29;20207;-79
2023/06/06 14:41:51;;;;;;;3.80;2.53;;;28.20;99.90;;;;;;10052637;29;20278;-81
2023/06/06 14:47:14;;;;;;;3.25;1.98;;;27.80;99.90;;;;;;10062557;29;20202;-82
2023/06/06 14:52:35;;;;;;;5.78;2.83;;;27.70;99.90;;;;;;10084060;29;20277;-80
2023/06/06 14:57:57;;;;;;;4.25;2.42;;;27.60;99.90;;;;;;10063313;29;20496;-81
2023/06/06 15:03:18;;;;;;;3.83;2.10;;;27.40;99.90;;;;;;10066040;29;20611;-78
2023/06/06 15:08:40;;;;;;;5.05;2.63;;;27.40;99.90;;;;;;10060541;29;20289;-78
2023/06/06 15:14:04;;;;;;;8.00;2.80;;;27.60;99.90;;;;;;10080093;29;20251;-81
2023/06/06 15:19:26;;;;;;;17.13;12.00;;;27.70;99.90;;;;;;10046185;29;20235;-87
2023/06/06 15:24:47;;;;;;;22.40;8.45;;;27.70;99.90;;;;;;10051048;29;20481;-85
2023/06/06 15:30:09;;;;;;;62.65;20.48;;;27.60;99.90;;;;;;10047027;29;20195;-86
2023/06/06 15:35:30;;;;;;;17.83;7.43;;;27.50;99.90;;;;;;10060190;29;20226;-87
2023/06/06 15:40:52;;;;;;;11.35;3.67;;;27.50;99.90;;;;;;10084661;29;20230;-86
2023/06/06 15:46:13;;;;;;;11.00;2.67;;;27.20;99.90;;;;;;10061414;29;20207;-88
2023/06/06 15:51:35;;;;;;;6.28;2.53;;;27.00;99.90;;;;;;10046853;29;20215;-84
2023/06/06 15:56:57;;;;;;;8.75;2.97;;;26.60;99.90;;;;;;10063146;29;20198;-87
2023/06/06 16:02:18;;;;;;;8.00;4.03;;;26.50;99.90;;;;;;10041588;29;20230;-86
2023/06/06 16:07:39;;;;;;;8.77;5.22;;;26.20;99.90;;;;;;10054147;29;20202;-84
2023/06/06 16:13:00;;;;;;;13.45;6.60;;;26.20;99.90;;;;;;10078482;29;20206;-78
2023/06/06 16:18:21;;;;;;;8.00;3.85;;;26.10;99.90;;;;;;10068583;29;20214;-84
2023/06/06 16:23:43;;;;;;;3.78;1.90;;;26.10;99.90;;;;;;10058467;29;20262;-75
2023/06/06 16:29:06;;;;;;;5.03;2.83;;;26.00;99.90;;;;;;10044939;29;20267;-89
2023/06/06 16:34:27;;;;;;;7.78;2.50;;;25.70;99.90;;;;;;10045007;29;20210;-89
2023/06/06 16:39:48;;;;;;;7.13;2.63;;;25.60;99.90;;;;;;10060729;29;20405;-89
2023/06/06 16:45:11;;;;;;;5.60;2.42;;;25.40;99.90;;;;;;10081479;29;20242;-87
2023/06/06 16:50:33;;;;;;;5.38;2.33;;;25.30;99.90;;;;;;10082901;29;20194;-88
2023/06/06 16:55:54;;;;;;;8.02;3.20;;;25.20;99.90;;;;;;10063530;29;20388;-78
2023/06/06 17:01:17;;;;;;;10.55;2.83;;;25.10;99.90;;;;;;10037976;29;20419;-87
2023/06/06 17:06:39;;;;;;;3.97;2.78;;;24.90;99.90;;;;;;10042850;29;20371;-83
2023/06/06 17:12:00;;;;;;;6.30;3.05;;;24.90;99.90;;;;;;10075610;29;20395;-88
2023/06/06 17:17:21;;;;;;;3.50;2.47;;;24.90;99.90;;;;;;10042111;29;20397;-84
2023/06/06 17:22:42;;;;;;;4.90;2.70;;;24.80;99.90;;;;;;10053167;29;20320;-87
2023/06/06 17:28:04;;;;;;;2.97;2.45;;;24.70;99.90;;;;;;10079109;29;20219;-83
2023/06/06 17:33:29;;;;;;;3.00;2.00;;;24.50;99.90;;;;;;10031210;29;20529;-75
2023/06/06 17:38:50;;;;;;;4.80;2.30;;;24.40;99.90;;;;;;10049493;29;20277;-86
2023/06/06 17:44:12;;;;;;;4.10;2.22;;;24.30;99.90;;;;;;10044736;29;20299;-86
2023/06/06 17:49:33;;;;;;;4.05;2.38;;;24.20;1.00;;;;;;10074070;29;20255;-89
2023/06/06 17:54:55;;;;;;;6.15;2.30;;;23.90;99.90;;;;;;10075493;29;20255;-89
2023/06/06 18:00:17;;;;;;;2.50;2.22;;;23.80;99.90;;;;;;10079326;29;20286;-85
2023/06/06 18:05:38;;;;;;;3.65;2.33;;;;;;;;;;10076569;29;20221;-76
2023/06/06 18:11:00;;;;;;;4.15;2.03;;;23.50;99.90;;;;;;10040397;29;20514;-85
2023/06/06 18:16:22;;;;;;;4.43;2.20;;;;;;;;;;10034715;29;20210;-88
2023/06/06 18:21:44;;;;;;;3.75;2.67;;;23.70;99.90;;;;;;10052506;29;20243;-87
2023/06/06 18:27:07;;;;;;;5.90;2.70;;;;;;;;;;10043675;29;20206;-82
2023/06/06 18:32:28;;;;;;;7.65;2.22;;;23.00;1.00;;;;;;10054589;29;20520;-87
2023/06/06 18:37:55;;;;;;;3.33;2.30;;;22.90;99.90;;;;;;10080681;29;20202;-85
2023/06/06 18:43:17;;;;;;;7.38;2.25;;;22.80;1.00;;;;;;10069300;29;20242;-89
2023/06/06 18:48:40;;;;;;;4.38;2.30;;;22.70;1.00;;;;;;10059456;29;20206;-87
2023/06/06 18:54:01;;;;;;;6.90;3.45;;;22.50;99.90;;;;;;10066457;29;20223;-85
2023/06/06 18:59:23;;;;;;;3.50;2.67;;;22.40;99.90;;;;;;10066357;29;20211;-89
2023/06/06 19:04:50;;;;;;;4.60;2.92;;;;;;;;;;10045135;29;20246;-88
2023/06/06 19:10:12;;;;;;;4.07;2.28;;;;;;;;;;10067404;29;20317;-88
2023/06/06 19:15:33;;;;;;;6.78;2.50;;;22.20;99.90;;;;;;10053215;29;20252;-88
2023/06/06 19:20:55;;;;;;;5.80;2.88;;;21.90;99.90;;;;;;10068349;29;20325;-88
2023/06/06 19:26:16;;;;;;;7.05;3.40;;;21.70;99.90;;;;;;10063838;29;20194;-89
2023/06/06 19:31:38;;;;;;;5.13;3.00;;;21.50;99.90;;;;;;10058905;29;20505;-88
2023/06/06 19:36:59;;;;;;;7.20;2.83;;;21.30;99.90;;;;;;10085753;29;20396;-88
2023/06/06 19:42:21;;;;;;;4.70;2.70;;;;;;;;;;10056912;29;20227;-83
2023/06/06 19:47:44;;;;;;;5.10;2.63;;;21.00;99.90;;;;;;10050088;29;20203;-83
2023/06/06 19:53:05;;;;;;;5.95;2.90;;;20.90;99.90;;;;;;10066625;29;20195;-85
2023/06/06 19:58:27;;;;;;;4.70;3.08;;;20.80;99.90;;;;;;10083084;29;20231;-88
2023/06/06 20:03:50;;;;;;;4.22;2.65;;;20.60;99.90;;;;;;10082257;29;20246;-87
2023/06/06 20:09:11;;;;;;;4.88;2.90;;;20.50;99.90;;;;;;10082473;29;20210;-84
2023/06/06 20:14:32;;;;;;;4.38;3.08;;;20.40;99.90;;;;;;10066613;29;20210;-75
2023/06/06 20:19:54;;;;;;;7.95;2.78;;;20.30;99.90;;;;;;10058480;29;20326;-89
2023/06/06 20:25:15;;;;;;;3.75;3.03;;;20.20;99.90;;;;;;10067918;29;20206;-82
2023/06/06 20:30:37;;;;;;;5.05;3.13;;;20.10;99.90;;;;;;10061398;29;20205;-75
2023/06/06 20:35:59;;;;;;;4.72;2.97;;;20.00;99.90;;;;;;10061539;29;20211;-76
2023/06/06 20:41:21;;;;;;;11.30;4.35;;;20.00;99.90;;;;;;10073494;29;20230;-86
2023/06/06 20:46:43;;;;;;;19.90;12.52;;;19.90;99.90;;;;;;10071267;29;20277;-88
2023/06/06 20:52:07;;;;;;;14.65;8.60;;;19.80;99.90;;;;;;10054999;29;20279;-88
2023/06/06 20:57:28;;;;;;;8.80;6.22;;;19.70;99.90;;;;;;10066222;29;20217;-87
2023/06/06 21:02:50;;;;;;;6.70;4.88;;;19.70;99.90;;;;;;10082288;29;20229;-75
2023/06/06 21:08:11;;;;;;;6.65;4.03;;;19.70;99.90;;;;;;10075959;29;20290;-75
2023/06/06 21:13:34;;;;;;;7.35;3.65;;;;;;;;;;10072588;29;20211;-75
2023/06/06 21:18:56;;;;;;;7.20;3.30;;;;;;;;;;10042548;29;20207;-75
2023/06/06 21:24:17;;;;;;;6.90;4.80;;;;;;;;;;10041662;29;20450;-74
2023/06/06 21:29:39;;;;;;;13.27;7.88;;;;;;;;;;10041878;29;20400;-87
2023/06/06 21:35:00;;;;;;;9.80;6.55;;;;;;;;;;10044107;29;20198;-87
2023/06/06 21:40:22;;;;;;;11.43;5.80;;;19.20;1.00;;;;;;10063218;29;20202;-87
2023/06/06 21:45:44;;;;;;;9.02;5.25;;;18.90;99.90;;;;;;10062169;29;20234;-83
2023/06/06 21:51:05;;;;;;;7.03;4.80;;;18.90;99.90;;;;;;10057843;29;20274;-87
2023/06/06 21:56:27;;;;;;;8.77;4.20;;;18.80;99.90;;;;;;10062528;29;20214;-82
2023/06/06 22:01:48;;;;;;;7.40;4.50;;;18.70;99.90;;;;;;10066128;29;20226;-86
2023/06/06 22:07:10;;;;;;;7.78;4.82;;;18.60;99.90;;;;;;10051249;29;20221;-87
2023/06/06 22:12:31;;;;;;;9.00;4.97;;;18.40;99.90;;;;;;10028524;29;20230;-76
2023/06/06 22:17:53;;;;;;;9.18;5.15;;;18.30;99.90;;;;;;10044889;29;20203;-88
2023/06/06 22:23:15;;;;;;;9.68;5.53;;;18.20;99.90;;;;;;10055589;29;20234;-87
2023/06/06 22:28:36;;;;;;;7.43;4.43;;;18.20;99.90;;;;;;10054144;29;20234;-83
2023/06/06 22:33:57;;;;;;;7.72;4.28;;;18.20;99.90;;;;;;10040923;29;20206;-75
2023/06/06 22:39:19;;;;;;;6.03;3.80;;;18.10;99.90;;;;;;10056481;29;20463;-84
2023/06/06 22:44:39;;;;;;;6.68;3.63;;;18.10;99.90;;;;;;10065340;29;20241;-76
2023/06/06 22:50:01;;;;;;;6.03;3.50;;;18.10;99.90;;;;;;10042625;29;20211;-74
2023/06/06 22:55:22;;;;;;;5.60;3.20;;;18.10;99.90;;;;;;10040518;29;20214;-77
2023/06/06 23:00:44;;;;;;;5.90;3.40;;;18.10;99.90;;;;;;10026855;29;20239;-80
2023/06/06 23:06:05;;;;;;;6.10;3.35;;;18.10;99.90;;;;;;10072075;29;20453;-75
2023/06/06 23:11:27;;;;;;;4.72;3.15;;;18.00;99.90;;;;;;10044631;29;20210;-76
2023/06/06 23:16:48;;;;;;;4.22;3.00;;;18.00;99.90;;;;;;10051005;29;20238;-83
2023/06/06 23:22:10;;;;;;;6.47;3.13;;;18.00;99.90;;;;;;10046923;29;20270;-85
2023/06/06 23:27:31;;;;;;;4.78;2.83;;;17.90;99.90;;;;;;10046392;29;20465;-81
2023/06/06 23:32:52;;;;;;;6.65;3.70;;;17.90;99.90;;;;;;10033109;29;20435;-85
2023/06/06 23:38:14;;;;;;;6.85;3.03;;;;;;;;;;10078621;29;20556;-87
2023/06/06 23:43:35;;;;;;;6.50;4.72;;;17.70;99.90;;;;;;10085384;29;20226;-76
2023/06/06 23:48:58;;;;;;;8.73;5.03;;;17.60;99.90;;;;;;10057299;29;20215;-75
2023/06/06 23:54:20;;;;;;;9.25;5.35;;;17.50;99.90;;;;;;10046038;29;20211;-74
2023/06/06 23:59:41;;;;;;;11.30;5.53;;;17.50;99.90;;;;;;10075271;29;20209;-88
